.
WxDataArchive / Data Records for 2015-04-20
2015-04-19 April 2015 2015-04-21

Data Records for Monday, 20 April 2015

Time	Temp	Chill	HIndex	Humid	Dewpt	 Wind 	HiWind	WindDir	Rain 	Barom
-----	----	-----	------	-----	-----	------	------	-------	-----	-----
00:00	59.2	59.2	59.2	96	58.1	1	5	112	0.02	29.266 
00:05	59.2	59.2	59.2	96	58.1	1	3	90	0.01	29.266 
00:10	59.2	59.2	59.2	96	58.1	2	5	112	0.00	29.266 
00:15	59.3	59.3	59.3	96	58.2	2	4	112	0.02	29.261 
00:20	59.3	59.3	59.3	96	58.2	1	4	90	0.00	29.261 
00:25	59.3	59.3	59.3	96	58.2	1	4	90	0.00	29.261 
00:30	59.5	59.5	59.5	96	58.4	0	3	112	0.00	29.250 
00:35	59.5	59.5	59.5	96	58.4	0	3	112	0.00	29.250 
00:40	59.8	59.8	59.8	96	58.7	1	3	90	0.00	29.250 
00:45	59.8	59.8	59.8	96	58.7	1	3	135	0.00	29.244 
00:50	59.8	59.8	59.8	96	58.7	1	3	90	0.00	29.244 
00:55	59.9	59.9	59.9	96	58.8	1	5	112	0.00	29.244 
01:00	60.1	60.1	60.1	96	59.0	1	4	112	0.00	29.237 
01:05	60.2	60.2	60.2	96	59.1	1	5	112	0.00	29.237 
01:10	60.4	60.4	60.4	96	59.3	1	4	112	0.00	29.237 
01:15	60.4	60.4	60.4	96	59.3	1	4	112	0.01	29.231 
01:20	60.5	60.5	60.5	96	59.4	1	5	112	0.01	29.231 
01:25	60.5	60.5	60.5	96	59.4	2	6	112	0.00	29.231 
01:30	60.5	60.5	60.5	96	59.4	1	4	112	0.00	29.227 
01:35	60.5	60.5	60.5	96	59.4	1	4	112	0.04	29.227 
01:40	60.5	60.5	60.5	96	59.4	2	4	90	0.01	29.227 
01:45	60.4	60.4	60.4	96	59.3	0	3	90	0.03	29.223 
01:50	60.4	60.4	60.4	96	59.3	1	3	112	0.11	29.223 
01:55	60.5	60.5	60.5	96	59.4	2	6	248	0.00	29.223 
02:00	60.2	60.2	60.2	96	59.1	2	5	248	0.00	29.228 
02:05	59.6	59.6	59.6	96	58.5	2	7	248	0.00	29.228 
02:10	59.2	59.2	59.2	96	58.1	2	7	248	0.00	29.228 
02:15	58.7	58.7	58.7	96	57.6	2	5	248	0.00	29.230 
02:20	58.4	58.4	58.4	96	57.3	2	7	270	0.00	29.230 
02:25	58.1	58.1	58.1	96	57.0	2	7	248	0.00	29.230 
02:30	58.0	58.0	58.0	96	56.9	3	10	270	0.00	29.230 
02:35	57.8	57.8	57.8	96	56.7	3	10	248	0.00	29.230 
02:40	57.6	57.6	57.6	96	56.5	2	5	248	0.00	29.230 
02:45	57.5	57.5	57.5	96	56.4	3	7	248	0.00	29.233 
02:50	57.2	57.2	57.2	96	56.1	3	10	248	0.00	29.233 
02:55	56.9	56.9	56.9	95	55.5	3	8	248	0.00	29.233 
03:00	56.5	56.5	56.5	95	55.1	2	10	248	0.00	29.244 
03:05	56.3	56.3	56.3	95	54.9	3	9	248	0.00	29.244 
03:10	56.0	56.0	56.0	95	54.6	3	10	248	0.00	29.244 
03:15	55.9	55.9	55.9	95	54.5	3	7	248	0.00	29.255 
03:20	55.9	55.9	55.9	94	54.2	3	12	248	0.00	29.255 
03:25	55.7	55.7	55.7	94	54.0	2	6	248	0.00	29.255 
03:30	55.7	55.7	55.7	94	54.0	2	7	248	0.00	29.255 
03:35	55.7	55.7	55.7	94	54.0	1	5	248	0.00	29.255 
03:40	55.6	55.6	55.6	94	53.9	2	7	248	0.00	29.255 
03:45	55.6	55.6	55.6	93	53.6	2	6	248	0.00	29.255 
03:50	55.4	55.4	55.4	93	53.4	3	12	248	0.00	29.255 
03:55	55.4	55.4	55.4	93	53.4	3	10	248	0.00	29.255 
04:00	55.4	55.4	55.4	92	53.1	3	7	248	0.00	29.257 
04:05	55.3	55.3	55.3	92	53.0	2	6	270	0.00	29.257 
04:10	55.3	55.3	55.3	92	53.0	2	6	248	0.00	29.257 
04:15	55.3	55.3	55.3	91	52.7	2	7	248	0.00	29.267 
04:20	55.3	55.3	55.3	91	52.7	3	7	270	0.00	29.267 
04:25	55.3	55.3	55.3	90	52.4	3	10	248	0.00	29.267 
04:30	55.4	55.4	55.4	90	52.5	1	5	248	0.00	29.272 
04:35	55.4	55.4	55.4	89	52.2	2	6	248	0.00	29.272 
04:40	55.4	55.4	55.4	89	52.2	2	7	225	0.00	29.272 
04:45	55.6	55.6	55.6	89	52.4	2	6	248	0.00	29.275 
04:50	55.6	55.6	55.6	89	52.4	3	7	248	0.00	29.275 
04:55	55.7	55.7	55.7	89	52.5	2	6	248	0.00	29.275 
05:00	55.7	55.7	55.7	89	52.5	2	7	270	0.00	29.274 
05:05	55.7	55.7	55.7	89	52.5	3	7	248	0.00	29.274 
05:10	55.9	55.9	55.9	88	52.4	3	9	248	0.00	29.274 
05:15	56.0	56.0	56.0	88	52.5	2	5	248	0.00	29.280 
05:20	56.0	56.0	56.0	87	52.2	1	3	248	0.00	29.280 
05:25	56.0	56.0	56.0	87	52.2	2	7	248	0.00	29.280 
05:30	56.2	56.2	56.2	87	52.4	2	6	248	0.00	29.286 
05:35	56.2	56.2	56.2	87	52.4	2	9	248	0.00	29.286 
05:40	56.3	56.3	56.3	87	52.5	1	3	248	0.00	29.286 
05:45	56.5	56.5	56.5	86	52.4	2	6	248	0.00	29.290 
05:50	56.5	56.5	56.5	86	52.4	2	6	248	0.00	29.290 
05:55	56.6	56.6	56.6	86	52.5	2	5	248	0.00	29.290 
06:00	56.7	56.7	56.7	86	52.6	1	4	248	0.00	29.296 
06:05	56.7	56.7	56.7	86	52.6	1	4	248	0.00	29.296 
06:10	56.7	56.7	56.7	86	52.6	1	7	248	0.00	29.296 
06:15	56.7	56.7	56.7	86	52.6	2	6	270	0.00	29.290 
06:20	56.7	56.7	56.7	87	52.9	1	4	248	0.00	29.290 
06:25	56.9	56.9	56.9	87	53.1	1	5	248	0.00	29.290 
06:30	56.9	56.9	56.9	86	52.8	1	4	248	0.00	29.293 
06:35	56.9	56.9	56.9	86	52.8	1	4	248	0.00	29.293 
06:40	57.0	57.0	57.0	86	52.9	1	5	270	0.00	29.293 
06:45	57.0	57.0	57.0	86	52.9	1	5	270	0.00	29.303 
06:50	57.0	57.0	57.0	86	52.9	2	6	248	0.00	29.303 
06:55	57.2	57.2	57.2	86	53.0	1	6	225	0.00	29.303 
07:00	57.2	57.2	57.2	86	53.0	1	3	225	0.00	29.296 
07:05	57.2	57.2	57.2	87	53.4	1	3	270	0.00	29.296 
07:10	57.2	57.2	57.2	87	53.4	1	4	248	0.00	29.296 
07:15	57.2	57.2	57.2	87	53.4	1	6	248	0.00	29.290 
07:20	57.2	57.2	57.2	87	53.4	1	3	248	0.00	29.290 
07:25	57.3	57.3	57.3	87	53.5	1	3	248	0.00	29.290 
07:30	57.3	57.3	57.3	87	53.5	1	9	248	0.00	29.291 
07:35	57.3	57.3	57.3	87	53.5	1	3	270	0.00	29.291 
07:40	57.3	57.3	57.3	87	53.5	1	4	248	0.00	29.291 
07:45	57.5	57.5	57.5	87	53.7	1	4	248	0.00	29.297 
07:50	57.5	57.5	57.5	87	53.7	1	3	248	0.00	29.297 
07:55	57.5	57.5	57.5	87	53.7	0	3	248	0.00	29.297 
08:00	57.6	57.6	57.6	87	53.8	1	5	248	0.00	29.292 
08:05	57.6	57.6	57.6	87	53.8	1	3	270	0.00	29.292 
08:10	57.6	57.6	57.6	87	53.8	1	2	270	0.00	29.292 
08:15	57.6	57.6	57.6	87	53.8	0	2	338	0.00	29.288 
08:20	57.6	57.6	57.6	87	53.8	1	5	248	0.00	29.288 
08:25	57.6	57.6	57.6	87	53.8	1	3	248	0.00	29.288 
08:30	57.8	57.8	57.8	87	54.0	1	6	248	0.00	29.284 
08:35	57.8	57.8	57.8	87	54.0	1	5	270	0.00	29.284 
08:40	58.0	58.0	58.0	86	53.8	1	4	270	0.00	29.284 
08:45	58.0	58.0	58.0	86	53.8	1	4	248	0.00	29.285 
08:50	58.1	58.1	58.1	86	53.9	1	4	248	0.00	29.285 
08:55	58.3	58.3	58.3	85	53.8	1	4	248	0.00	29.285 
09:00	58.3	58.3	58.3	85	53.8	2	4	248	0.00	29.282 
09:05	58.4	58.4	58.4	85	53.9	2	7	248	0.00	29.282 
09:10	58.6	58.6	58.6	84	53.8	2	4	248	0.00	29.282 
09:15	58.6	58.6	58.6	84	53.8	2	6	248	0.00	29.276 
09:20	58.7	58.7	58.7	84	53.9	1	3	248	0.00	29.276 
09:25	58.7	58.7	58.7	84	53.9	1	6	248	0.00	29.276 
09:30	58.6	58.6	58.6	84	53.8	2	5	225	0.00	29.277 
09:35	58.4	58.4	58.4	85	53.9	2	9	248	0.00	29.277 
09:40	58.4	58.4	58.4	86	54.2	1	5	248	0.00	29.277 
09:45	58.3	58.3	58.3	86	54.1	2	6	248	0.00	29.275 
09:50	58.1	58.1	58.1	86	53.9	2	5	248	0.00	29.275 
09:55	58.1	58.1	58.1	86	53.9	2	6	248	0.00	29.275 
10:00	58.3	58.3	58.3	86	54.1	2	5	248	0.00	29.270 
10:05	58.6	58.6	58.6	85	54.1	2	11	248	0.00	29.270 
10:10	58.7	58.7	58.7	84	53.9	2	6	248	0.00	29.270 
10:15	58.4	58.4	58.4	84	53.6	4	8	248	0.00	29.280 
10:20	57.6	57.6	57.6	86	53.4	4	9	248	0.01	29.280 
10:25	57.0	57.0	57.0	88	53.5	3	10	248	0.00	29.280 
10:30	56.9	56.9	56.9	88	53.4	3	7	248	0.00	29.286 
10:35	56.6	56.6	56.6	87	52.8	3	11	248	0.00	29.286 
10:40	56.3	56.3	56.3	87	52.5	2	7	248	0.00	29.286 
10:45	56.2	56.2	56.2	87	52.4	3	7	248	0.00	29.298 
10:50	55.7	55.7	55.7	86	51.6	4	10	248	0.00	29.298 
10:55	55.1	55.1	55.1	85	50.7	4	11	270	0.00	29.298 
11:00	54.7	54.7	54.7	85	50.3	3	7	248	0.00	29.308 
11:05	55.0	55.0	55.0	85	50.6	3	10	248	0.00	29.308 
11:10	55.3	55.3	55.3	84	50.5	3	7	248	0.00	29.308 
11:15	55.3	55.3	55.3	83	50.2	3	7	248	0.00	29.316 
11:20	55.0	55.0	55.0	82	49.6	4	11	248	0.00	29.316 
11:25	54.7	54.7	54.7	80	48.7	4	10	248	0.00	29.316 
11:30	55.0	55.0	55.0	79	48.6	4	11	248	0.00	29.329 
11:35	55.1	55.1	55.1	78	48.4	4	12	248	0.00	29.329 
11:40	55.3	55.3	55.3	77	48.2	3	11	248	0.00	29.329 
11:45	55.4	55.4	55.4	77	48.3	2	7	270	0.00	29.332 
11:50	55.6	55.6	55.6	76	48.2	4	11	248	0.00	29.332 
11:55	55.4	55.4	55.4	76	48.0	4	12	248	0.00	29.332 
12:00	55.6	55.6	55.6	76	48.2	3	7	248	0.00	29.342 
12:05	55.4	55.4	55.4	76	48.0	4	10	248	0.00	29.342 
12:10	55.1	55.1	55.1	77	48.0	4	10	248	0.00	29.342 
12:15	54.8	54.8	54.8	77	47.7	4	11	248	0.00	29.354 
12:20	54.2	54.2	54.2	78	47.5	3	7	248	0.00	29.354 
12:25	53.8	53.8	53.8	79	47.4	4	9	248	0.00	29.354 
12:30	53.8	53.8	53.8	80	47.8	3	5	248	0.00	29.360 
12:35	53.9	53.9	53.9	80	47.9	2	8	248	0.00	29.360 
12:40	53.9	53.9	53.9	79	47.5	3	9	248	0.00	29.360 
12:45	53.5	53.5	53.5	77	46.5	5	11	248	0.00	29.365 
12:50	53.1	53.1	53.1	77	46.1	6	15	248	0.00	29.365 
12:55	53.1	53.1	53.1	77	46.1	4	10	248	0.00	29.365 
13:00	53.3	53.3	53.3	77	46.3	3	11	248	0.00	29.381 
13:05	53.3	53.3	53.3	75	45.6	4	12	248	0.00	29.381 
13:10	53.2	53.2	53.2	75	45.5	4	11	248	0.00	29.381 
13:15	53.1	53.1	53.1	75	45.4	4	10	248	0.00	29.389 
13:20	52.9	52.9	52.9	77	45.9	3	10	248	0.00	29.389 
13:25	52.8	52.8	52.8	77	45.8	4	12	248	0.00	29.389 
13:30	52.8	52.8	52.8	77	45.8	3	10	248	0.00	29.399 
13:35	52.5	52.5	52.5	77	45.5	4	13	248	0.00	29.399 
13:40	52.5	52.5	52.5	76	45.2	3	10	248	0.00	29.399 
13:45	52.5	52.5	52.5	77	45.5	3	7	248	0.00	29.405 
13:50	53.1	53.1	53.1	77	46.1	4	10	248	0.00	29.405 
13:55	53.5	53.5	53.5	75	45.8	3	9	248	0.00	29.405 
14:00	53.3	53.3	53.3	73	44.9	5	10	248	0.00	29.400 
14:05	53.3	53.3	53.3	72	44.5	4	13	248	0.00	29.400 
14:10	53.1	53.1	53.1	73	44.7	3	12	248	0.00	29.400 
14:15	52.6	52.6	52.6	73	44.2	5	11	248	0.00	29.414 
14:20	52.3	52.3	52.3	74	44.3	5	10	248	0.00	29.414 
14:25	52.8	52.8	52.8	73	44.4	4	12	248	0.00	29.414 
14:30	53.1	53.1	53.1	73	44.7	3	10	248	0.00	29.420 
14:35	52.8	52.8	52.8	73	44.4	4	9	248	0.00	29.420 
14:40	52.3	52.3	52.3	73	43.9	4	7	248	0.00	29.420 
14:45	52.2	52.2	52.2	72	43.4	5	13	248	0.00	29.432 
14:50	52.2	52.2	52.2	72	43.4	5	17	248	0.00	29.432 
14:55	52.5	52.5	52.5	72	43.7	4	12	248	0.00	29.432 
15:00	52.5	52.5	52.5	71	43.4	3	12	248	0.00	29.441 
15:05	52.2	52.2	52.2	72	43.4	4	11	270	0.00	29.441 
15:10	52.2	52.2	52.2	72	43.4	3	9	248	0.00	29.441 
15:15	52.0	52.0	52.0	72	43.3	3	7	248	0.00	29.450 
15:20	51.7	51.7	51.7	73	43.3	3	9	248	0.00	29.450 
15:25	51.6	51.6	51.6	73	43.2	3	12	248	0.00	29.450 
15:30	51.3	51.3	51.3	73	42.9	4	9	248	0.00	29.454 
15:35	51.3	51.3	51.3	77	44.3	3	6	248	0.00	29.454 
15:40	50.8	50.8	50.8	79	44.5	3	9	248	0.00	29.454 
15:45	50.5	50.5	50.5	79	44.2	4	11	248	0.00	29.465 
15:50	50.1	50.1	50.1	81	44.5	3	9	248	0.00	29.465 
15:55	49.5	49.5	49.5	82	44.2	3	11	248	0.00	29.465 
16:00	49.2	49.2	49.2	83	44.3	3	7	248	0.00	29.470 
16:05	49.2	49.2	49.2	82	43.9	3	7	248	0.00	29.470 
16:10	49.2	47.9	49.2	80	43.3	4	7	248	0.00	29.470 
16:15	49.1	47.2	49.1	79	42.9	5	12	248	0.00	29.480 
16:20	49.1	47.8	49.1	78	42.5	4	11	248	0.00	29.480 
16:25	49.1	47.8	49.1	78	42.5	4	9	248	0.00	29.480 
16:30	48.9	46.9	48.9	77	42.0	5	11	270	0.00	29.488 
16:35	48.8	47.5	48.8	77	41.9	4	10	248	0.00	29.488 
16:40	48.6	47.3	48.6	78	42.1	4	10	248	0.00	29.488 
16:45	48.6	47.3	48.6	77	41.7	4	10	248	0.00	29.496 
16:50	48.8	48.8	48.8	80	42.9	3	9	248	0.00	29.496 
16:55	48.9	48.9	48.9	77	42.0	3	7	270	0.00	29.496 
17:00	48.9	48.9	48.9	77	42.0	2	6	270	0.00	29.499 
17:05	48.8	47.5	48.8	76	41.6	4	12	270	0.00	29.499 
17:10	48.5	46.5	48.5	77	41.6	5	10	270	0.00	29.499 
17:15	48.2	46.8	48.2	77	41.3	4	7	270	0.00	29.512 
17:20	48.3	46.9	48.3	77	41.4	4	7	270	0.00	29.512 
17:25	48.5	48.5	48.5	77	41.6	3	13	270	0.00	29.512 
17:30	48.8	48.8	48.8	76	41.6	3	9	248	0.00	29.512 
17:35	49.1	49.1	49.1	75	41.5	3	5	248	0.00	29.512 
17:40	49.2	49.2	49.2	74	41.3	2	7	248	0.00	29.512 
17:45	49.4	49.4	49.4	74	41.5	2	7	248	0.00	29.513 
17:50	49.4	49.4	49.4	73	41.1	2	6	248	0.00	29.513 
17:55	49.4	49.4	49.4	73	41.1	3	7	248	0.00	29.513 
18:00	49.4	49.4	49.4	73	41.1	3	11	248	0.00	29.522 
18:05	49.2	49.2	49.2	73	40.9	3	6	248	0.00	29.522 
18:10	49.2	47.9	49.2	73	40.9	4	10	270	0.00	29.522 
18:15	49.2	49.2	49.2	73	40.9	3	7	270	0.00	29.527 
18:20	49.4	49.4	49.4	73	41.1	3	5	248	0.00	29.527 
18:25	49.5	49.5	49.5	72	40.9	3	6	270	0.00	29.527 
18:30	49.5	48.3	49.5	72	40.9	4	7	270	0.00	29.527 
18:35	49.4	49.4	49.4	72	40.8	3	10	248	0.00	29.527 
18:40	49.2	49.2	49.2	70	39.8	3	7	270	0.00	29.527 
18:45	49.2	49.2	49.2	69	39.5	3	8	248	0.00	29.534 
18:50	49.2	49.2	49.2	67	38.7	3	9	248	0.00	29.534 
18:55	49.6	49.6	49.6	64	37.9	3	6	248	0.00	29.534 
19:00	49.8	49.8	49.8	60	36.5	3	7	248	0.00	29.537 
19:05	49.9	48.8	49.9	58	35.7	4	13	270	0.00	29.537 
19:10	49.8	48.6	49.8	58	35.6	4	9	248	0.00	29.537 
19:15	49.6	48.4	49.6	58	35.4	4	11	248	0.00	29.544 
19:20	49.4	49.4	49.4	58	35.2	3	8	248	0.00	29.544 
19:25	49.4	49.4	49.4	58	35.2	3	8	248	0.00	29.544 
19:30	49.2	49.2	49.2	59	35.5	2	5	270	0.00	29.552 
19:35	49.2	49.2	49.2	59	35.5	2	9	248	0.00	29.552 
19:40	49.1	49.1	49.1	58	35.0	3	7	248	0.00	29.552 
19:45	49.1	49.1	49.1	59	35.4	3	6	270	0.00	29.558 
19:50	48.9	48.9	48.9	58	34.8	3	10	248	0.00	29.558 
19:55	48.9	48.9	48.9	59	35.2	3	9	248	0.00	29.558 
20:00	48.9	48.9	48.9	60	35.6	2	8	248	0.00	29.564 
20:05	48.8	48.8	48.8	60	35.5	2	6	248	0.00	29.564 
20:10	48.8	48.8	48.8	61	36.0	2	5	248	0.00	29.564 
20:15	48.6	48.6	48.6	60	35.3	3	6	248	0.00	29.565 
20:20	48.6	48.6	48.6	60	35.3	3	7	248	0.00	29.565 
20:25	48.5	48.5	48.5	60	35.3	2	5	248	0.00	29.565 
20:30	48.5	48.5	48.5	61	35.7	1	4	248	0.00	29.573 
20:35	48.3	48.3	48.3	61	35.5	2	6	248	0.00	29.573 
20:40	48.3	48.3	48.3	61	35.5	2	7	248	0.00	29.573 
20:45	48.2	48.2	48.2	59	34.6	3	10	248	0.00	29.579 
20:50	48.2	48.2	48.2	59	34.6	2	5	248	0.00	29.579 
20:55	48.0	48.0	48.0	60	34.8	3	9	248	0.00	29.579 
21:00	48.0	48.0	48.0	60	34.8	3	9	248	0.00	29.588 
21:05	47.9	47.9	47.9	60	34.7	3	11	248	0.00	29.588 
21:10	47.7	47.7	47.7	60	34.5	2	7	248	0.00	29.588 
21:15	47.6	47.6	47.6	60	34.4	3	7	248	0.00	29.593 
21:20	47.6	47.6	47.6	60	34.4	3	6	248	0.00	29.593 
21:25	47.6	47.6	47.6	60	34.4	3	10	248	0.00	29.593 
21:30	47.4	47.4	47.4	61	34.6	3	9	248	0.00	29.605 
21:35	47.3	47.3	47.3	60	34.1	3	7	248	0.00	29.605 
21:40	47.1	47.1	47.1	60	33.9	2	6	248	0.00	29.605 
21:45	47.0	45.4	47.0	60	33.8	4	7	270	0.00	29.612 
21:50	46.8	46.8	46.8	60	33.7	3	10	248	0.00	29.612 
21:55	46.8	46.8	46.8	59	33.2	3	9	270	0.00	29.612 
22:00	46.8	46.8	46.8	58	32.8	3	6	270	0.00	29.619 
22:05	46.8	46.8	46.8	58	32.8	3	7	270	0.00	29.619 
22:10	46.7	46.7	46.7	58	32.7	3	8	270	0.00	29.619 
22:15	46.7	45.1	46.7	58	32.7	4	9	270	0.00	29.626 
22:20	46.7	46.7	46.7	58	32.7	2	5	248	0.00	29.626 
22:25	46.5	46.5	46.5	57	32.1	2	6	270	0.00	29.626 
22:30	46.5	46.5	46.5	58	32.5	2	4	270	0.00	29.628 
22:35	46.5	46.5	46.5	58	32.5	2	5	248	0.00	29.628 
22:40	46.5	46.5	46.5	58	32.5	2	6	248	0.00	29.628 
22:45	46.4	46.4	46.4	59	32.9	2	6	248	0.00	29.634 
22:50	46.4	46.4	46.4	59	32.9	1	4	270	0.00	29.634 
22:55	46.2	46.2	46.2	60	33.1	2	5	225	0.00	29.634 
23:00	46.1	46.1	46.1	60	33.0	2	5	248	0.00	29.630 
23:05	46.0	46.0	46.0	60	32.9	2	5	248	0.00	29.630 
23:10	45.8	45.8	45.8	61	33.1	1	5	248	0.00	29.630 
23:15	45.7	45.7	45.7	61	33.0	2	5	248	0.00	29.630 
23:20	45.5	45.5	45.5	62	33.2	2	5	248	0.00	29.630 
23:25	45.4	45.4	45.4	62	33.2	2	4	248	0.00	29.630 
23:30	45.2	45.2	45.2	63	33.4	1	5	248	0.00	29.633 
23:35	45.2	45.2	45.2	63	33.4	1	6	270	0.00	29.633 
23:40	45.1	45.1	45.1	64	33.7	1	5	248	0.00	29.633 
23:45	44.9	44.9	44.9	64	33.5	1	3	270	0.00	29.638 
23:50	44.9	44.9	44.9	65	33.9	1	3	270	0.00	29.638 
23:55	44.9	44.9	44.9	65	33.9	1	3	248	0.00	29.638 

CoCoRaHS
IN-AL-39
A2 Web Hosting
Creative Commons License
GoDaddy
search engine by freefind advanced

loaded 2018-11-14 04:56:54 • last modified 2010-11-18 10:43:29
Privacy PolicyDisclaimer
• wx.awcolley.com is powered by PmWiki v.2002016 •
• all content (unless otherwise noted) © 2018 A W Colley